Time;durP1;ratioP1;P1;durP2;ratioP2;P2;SDS_P1;SDS_P2;PMS_P1;PMS_P2;Temp;Humidity;BMP_temperature;BMP_pressure;BME280_temperature;BME280_humidity;BME280_pressure;Samples;Min_cycle;Max_cycle;Signal;HPM_P1;HPM_P2
2022/07/26 00:01:17;;;;;;;2.50;0.70;;;27.50;43.50;;;;;;4990023;28;20444;-46
2022/07/26 00:03:46;;;;;;;1.50;1.10;;;27.50;43.60;;;;;;5010068;28;20467;-47
2022/07/26 00:06:14;;;;;;;1.07;0.97;;;27.50;43.70;;;;;;5017152;28;20495;-49
2022/07/26 00:08:46;;;;;;;2.40;0.97;;;27.50;43.50;;;;;;5011029;28;21010;-47
2022/07/26 00:11:15;;;;;;;1.20;1.00;;;27.50;43.60;;;;;;4999457;28;20450;-49
2022/07/26 00:13:44;;;;;;;1.23;0.90;;;27.50;43.60;;;;;;5016309;28;20492;-48
2022/07/26 00:16:12;;;;;;;1.70;1.27;;;27.50;43.60;;;;;;5017602;28;20495;-49
2022/07/26 00:18:41;;;;;;;1.10;0.93;;;27.50;43.70;;;;;;5010774;28;20461;-47
2022/07/26 00:21:09;;;;;;;0.90;0.80;;;27.50;43.60;;;;;;4996301;28;20440;-47
2022/07/26 00:23:57;;;;;;;1.17;0.90;;;27.50;43.70;;;;;;5024956;28;20735;-48
2022/07/26 00:27:11;;;;;;;1.20;0.97;;;27.50;43.50;;;;;;4999647;28;20797;-47
2022/07/26 00:29:39;;;;;;;3.13;1.20;;;27.50;43.70;;;;;;5003736;28;20477;-48
2022/07/26 00:32:07;;;;;;;1.73;1.13;;;27.50;43.90;;;;;;5020435;28;20531;-48
2022/07/26 00:34:35;;;;;;;1.17;1.07;;;27.50;43.80;;;;;;5015206;28;20523;-47
2022/07/26 00:37:03;;;;;;;1.93;0.97;;;27.50;43.70;;;;;;5022643;28;20451;-49
2022/07/26 00:39:31;;;;;;;0.93;0.83;;;27.50;45.10;;;;;;5003925;28;20417;-48
2022/07/26 00:41:59;;;;;;;1.07;0.83;;;27.50;43.90;;;;;;5008242;28;20800;-48
2022/07/26 00:44:37;;;;;;;1.10;0.90;;;27.50;44.10;;;;;;5020147;28;20458;-48
2022/07/26 00:47:06;;;;;;;1.20;1.10;;;27.50;44.00;;;;;;4991840;28;20445;-48
2022/07/26 00:49:34;;;;;;;1.00;0.87;;;27.50;44.20;;;;;;4993473;28;20472;-47
2022/07/26 00:52:04;;;;;;;0.77;0.67;;;27.50;44.20;;;;;;5015940;28;20848;-46
2022/07/26 00:54:32;;;;;;;1.50;0.97;;;27.40;43.90;;;;;;5019381;28;20420;-47
2022/07/26 00:57:01;;;;;;;1.53;1.13;;;27.40;44.00;;;;;;5004340;28;20465;-48
2022/07/26 00:59:29;;;;;;;1.47;0.60;;;27.40;44.10;;;;;;5013073;28;20433;-50
2022/07/26 01:01:58;;;;;;;0.93;0.90;;;27.40;44.20;;;;;;5009651;28;20447;-50
2022/07/26 01:04:27;;;;;;;1.93;0.93;;;27.40;44.20;;;;;;5019429;28;20461;-51
2022/07/26 01:06:56;;;;;;;1.30;0.80;;;27.40;44.20;;;;;;5012831;28;20476;-48
2022/07/26 01:09:24;;;;;;;1.80;1.00;;;27.40;44.20;;;;;;5006209;28;20861;-48
2022/07/26 01:11:52;;;;;;;1.27;0.80;;;27.40;44.40;;;;;;5029419;28;20435;-48
2022/07/26 01:14:21;;;;;;;1.10;0.90;;;27.40;44.30;;;;;;5011913;28;20471;-48
2022/07/26 01:16:49;;;;;;;1.20;0.90;;;27.40;44.40;;;;;;5023959;28;20452;-51
2022/07/26 01:19:19;;;;;;;1.13;0.90;;;27.30;44.40;;;;;;5014311;28;20467;-48
2022/07/26 01:21:49;;;;;;;1.23;1.13;;;27.30;44.30;;;;;;5026377;28;20490;-51
2022/07/26 01:24:17;;;;;;;1.30;1.00;;;27.40;44.40;;;;;;5014451;28;20471;-48
2022/07/26 01:26:46;;;;;;;1.20;1.07;;;27.40;44.50;;;;;;5030994;22;20906;-47
2022/07/26 01:29:14;;;;;;;1.90;0.70;;;27.30;44.50;;;;;;5030979;28;20554;-48
2022/07/26 01:31:42;;;;;;;1.27;0.90;;;27.30;44.50;;;;;;5041658;28;20466;-48
2022/07/26 01:34:10;;;;;;;1.30;1.20;;;27.30;44.40;;;;;;5036504;28;20554;-48
2022/07/26 01:36:39;;;;;;;1.20;1.10;;;27.30;44.50;;;;;;5027230;28;20525;-48
2022/07/26 01:39:08;;;;;;;1.20;0.70;;;27.30;44.50;;;;;;5028273;28;20452;-48
2022/07/26 01:41:37;;;;;;;1.63;1.00;;;27.30;44.60;;;;;;5029670;28;20436;-48
2022/07/26 01:44:06;;;;;;;1.13;1.03;;;27.30;44.60;;;;;;5007847;28;20488;-48
2022/07/26 01:46:36;;;;;;;1.50;0.93;;;27.30;44.50;;;;;;5015159;28;20453;-47
2022/07/26 01:49:05;;;;;;;1.43;0.90;;;27.30;44.80;;;;;;5039431;28;20471;-47
2022/07/26 01:51:34;;;;;;;1.50;1.20;;;27.30;44.80;;;;;;5040579;28;20447;-48
2022/07/26 01:54:04;;;;;;;1.00;0.90;;;27.30;44.80;;;;;;5034017;28;20886;-47
2022/07/26 01:56:34;;;;;;;1.10;0.90;;;27.30;44.80;;;;;;5047864;28;20444;-48
2022/07/26 01:59:02;;;;;;;1.40;1.07;;;27.30;44.50;;;;;;5038510;28;20470;-47
2022/07/26 02:01:30;;;;;;;1.30;1.20;;;27.30;44.80;;;;;;5041869;28;20420;-48
2022/07/26 02:04:07;;;;;;;1.20;0.83;;;27.30;44.80;;;;;;5012731;28;20468;-48
2022/07/26 02:06:36;;;;;;;1.43;1.00;;;27.30;44.70;;;;;;5021378;28;20464;-48
2022/07/26 02:09:04;;;;;;;1.17;1.00;;;27.30;45.00;;;;;;5033513;28;20533;-48
2022/07/26 02:11:39;;;;;;;1.63;1.00;;;27.20;44.80;;;;;;5037591;28;20427;-48
2022/07/26 02:14:08;;;;;;;1.10;1.00;;;27.30;45.00;;;;;;5030112;28;20818;-48
2022/07/26 02:16:36;;;;;;;1.63;1.07;;;27.30;45.10;;;;;;5037930;28;20478;-48
2022/07/26 02:19:05;;;;;;;1.27;1.13;;;27.20;44.60;;;;;;5043988;28;20870;-48
2022/07/26 02:21:33;;;;;;;1.23;0.87;;;27.20;44.80;;;;;;5041258;28;20486;-48
2022/07/26 02:24:02;;;;;;;1.20;0.87;;;27.20;45.10;;;;;;5041729;28;20458;-48
2022/07/26 02:26:30;;;;;;;1.47;1.27;;;27.20;45.10;;;;;;5038630;28;20769;-47
2022/07/26 02:28:59;;;;;;;2.10;1.00;;;27.20;45.10;;;;;;5029732;28;20790;-48
2022/07/26 02:31:28;;;;;;;2.93;1.37;;;27.20;45.20;;;;;;5039307;28;20428;-47
2022/07/26 02:33:59;;;;;;;1.50;0.93;;;27.20;45.20;;;;;;5040242;28;20467;-48
2022/07/26 02:36:27;;;;;;;1.23;0.90;;;27.20;45.00;;;;;;5039043;28;20440;-48
2022/07/26 02:38:55;;;;;;;1.03;0.93;;;27.20;45.10;;;;;;5040603;28;20470;-48
2022/07/26 02:41:24;;;;;;;1.37;1.07;;;27.20;45.20;;;;;;5044513;28;20425;-47
2022/07/26 02:43:52;;;;;;;1.37;0.70;;;27.20;45.20;;;;;;5034711;28;20470;-47
2022/07/26 02:46:21;;;;;;;1.20;0.70;;;27.20;45.30;;;;;;5049587;28;20443;-49
2022/07/26 02:48:50;;;;;;;0.97;0.80;;;27.20;45.10;;;;;;5043237;28;20471;-48
2022/07/26 02:51:18;;;;;;;1.33;0.87;;;27.20;45.30;;;;;;5043715;28;20459;-47
2022/07/26 02:53:46;;;;;;;0.80;0.73;;;27.20;45.30;;;;;;5047310;28;20516;-48
2022/07/26 02:56:14;;;;;;;1.10;1.00;;;27.20;45.40;;;;;;5033297;28;20432;-47
2022/07/26 02:58:42;;;;;;;1.10;0.80;;;27.20;45.40;;;;;;5035506;28;20464;-48
2022/07/26 03:01:10;;;;;;;1.27;1.07;;;27.20;45.40;;;;;;5024762;28;20531;-47
2022/07/26 03:03:41;;;;;;;1.20;0.63;;;27.20;45.40;;;;;;5040903;28;21074;-48
2022/07/26 03:06:17;;;;;;;1.47;0.90;;;27.20;45.50;;;;;;5043183;28;20446;-48
2022/07/26 03:08:45;;;;;;;1.97;1.10;;;27.20;45.60;;;;;;5048082;28;20469;-48
2022/07/26 03:11:13;;;;;;;1.03;0.97;;;27.10;45.50;;;;;;5032157;28;20464;-48
2022/07/26 03:13:41;;;;;;;1.13;1.03;;;27.10;45.40;;;;;;5035170;28;20556;-48
2022/07/26 03:16:10;;;;;;;4.00;1.10;;;27.10;45.50;;;;;;5042760;28;20438;-48
2022/07/26 03:18:38;;;;;;;1.37;1.07;;;27.10;45.50;;;;;;5042928;28;20584;-47
2022/07/26 03:21:08;;;;;;;1.47;0.80;;;27.10;45.50;;;;;;5039300;28;20478;-47
2022/07/26 03:23:36;;;;;;;1.57;0.93;;;27.10;45.60;;;;;;5038093;28;20512;-48
2022/07/26 03:26:04;;;;;;;1.00;0.90;;;27.10;45.60;;;;;;5040934;28;20889;-47
2022/07/26 03:28:33;;;;;;;2.00;0.97;;;27.10;45.60;;;;;;5037450;28;20467;-48
2022/07/26 03:31:02;;;;;;;1.70;1.00;;;27.10;45.60;;;;;;5034852;28;20467;-47
2022/07/26 03:33:30;;;;;;;0.97;0.87;;;27.10;45.70;;;;;;5042158;28;20521;-48
2022/07/26 03:35:58;;;;;;;1.50;1.20;;;27.10;45.70;;;;;;5038483;28;20498;-48
2022/07/26 03:38:29;;;;;;;4.90;1.03;;;27.10;45.70;;;;;;5037276;28;20491;-48
2022/07/26 03:40:57;;;;;;;1.73;1.07;;;27.10;45.40;;;;;;5040135;28;20427;-48
2022/07/26 03:43:25;;;;;;;1.90;1.07;;;27.10;45.70;;;;;;5026313;28;20468;-48
2022/07/26 03:45:54;;;;;;;1.87;1.10;;;27.00;45.50;;;;;;5037130;28;20439;-47
2022/07/26 03:48:22;;;;;;;1.17;1.07;;;27.00;45.60;;;;;;5035405;28;20843;-48
2022/07/26 03:50:50;;;;;;;1.23;1.00;;;27.00;45.80;;;;;;5041236;28;20475;-48
2022/07/26 03:53:18;;;;;;;3.93;1.20;;;27.00;45.80;;;;;;5042760;28;20455;-48
2022/07/26 03:58:33;;;;;;;1.77;1.00;;;27.00;45.80;;;;;;5043225;28;20466;-47
2022/07/26 04:01:01;;;;;;;1.40;1.13;;;27.00;45.90;;;;;;5028520;28;20451;-48
2022/07/26 04:03:30;;;;;;;1.47;1.13;;;27.00;45.90;;;;;;5038743;28;20503;-48
2022/07/26 04:05:58;;;;;;;1.10;0.90;;;27.00;45.90;;;;;;5029333;28;20448;-47
2022/07/26 04:08:28;;;;;;;1.20;0.80;;;27.00;45.90;;;;;;5036113;28;20498;-47
2022/07/26 04:10:58;;;;;;;2.73;1.10;;;27.00;45.90;;;;;;5038538;28;20475;-48
2022/07/26 04:13:26;;;;;;;1.30;0.90;;;27.00;46.00;;;;;;5030931;28;20887;-47
2022/07/26 04:15:55;;;;;;;1.60;1.30;;;26.90;45.90;;;;;;5029002;28;20436;-48
2022/07/26 04:18:23;;;;;;;6.00;1.40;;;26.90;45.90;;;;;;5043679;28;20472;-47
2022/07/26 04:20:51;;;;;;;1.77;1.40;;;26.90;47.00;;;;;;5040922;28;20494;-48
2022/07/26 04:23:19;;;;;;;1.73;1.50;;;26.90;46.00;;;;;;5042461;28;20459;-48
2022/07/26 04:25:48;;;;;;;1.63;1.20;;;26.90;45.90;;;;;;5039181;28;20872;-47
2022/07/26 04:28:18;;;;;;;2.30;1.43;;;26.90;45.90;;;;;;5036128;28;21045;-48
2022/07/26 04:30:46;;;;;;;2.70;1.10;;;26.90;45.90;;;;;;5037093;28;21008;-47
2022/07/26 04:33:14;;;;;;;2.00;1.43;;;26.80;45.90;;;;;;5046241;28;20547;-47
2022/07/26 04:35:42;;;;;;;1.47;1.20;;;26.90;46.10;;;;;;5042387;28;20526;-47
2022/07/26 04:38:10;;;;;;;1.10;1.00;;;26.90;46.10;;;;;;5036836;28;21067;-47
2022/07/26 04:40:39;;;;;;;1.07;0.87;;;26.80;46.20;;;;;;5039138;28;20448;-47
2022/07/26 04:43:08;;;;;;;0.97;0.80;;;26.90;46.20;;;;;;5029030;28;20480;-48
2022/07/26 04:45:44;;;;;;;1.50;1.40;;;26.80;46.10;;;;;;5023080;28;20439;-48
2022/07/26 04:48:15;;;;;;;2.77;1.40;;;26.80;46.20;;;;;;5036359;28;20850;-48
2022/07/26 04:50:44;;;;;;;1.50;1.30;;;26.80;46.20;;;;;;5036192;28;20550;-48
2022/07/26 04:53:13;;;;;;;1.50;1.10;;;26.80;46.20;;;;;;5024357;28;20485;-48
2022/07/26 04:55:42;;;;;;;1.60;1.27;;;26.80;46.30;;;;;;5047174;28;20950;-48
2022/07/26 04:58:10;;;;;;;1.00;0.90;;;26.80;46.30;;;;;;5037791;28;20476;-48
2022/07/26 05:00:39;;;;;;;1.17;1.10;;;26.80;46.30;;;;;;5024354;28;20444;-48
2022/07/26 05:03:28;;;;;;;2.20;1.27;;;26.80;46.40;;;;;;5030101;28;20890;-47
2022/07/26 05:05:56;;;;;;;3.20;1.90;;;26.80;46.40;;;;;;5044010;28;20849;-48
2022/07/26 05:08:25;;;;;;;1.20;1.10;;;26.80;46.40;;;;;;5041249;28;20463;-48
2022/07/26 05:10:53;;;;;;;1.93;1.20;;;26.80;46.60;;;;;;5033661;28;20459;-48
2022/07/26 05:13:23;;;;;;;2.17;1.00;;;26.80;46.40;;;;;;5040884;28;21045;-48
2022/07/26 05:15:59;;;;;;;1.40;1.20;;;26.80;46.40;;;;;;5036133;28;20492;-48
2022/07/26 05:18:30;;;;;;;1.80;1.47;;;26.70;46.50;;;;;;5037743;28;20518;-48
2022/07/26 05:21:17;;;;;;;1.53;1.30;;;26.70;46.50;;;;;;5022246;28;20447;-48
2022/07/26 05:23:45;;;;;;;1.73;1.20;;;26.70;46.50;;;;;;5034119;28;20471;-48
2022/07/26 05:26:13;;;;;;;1.33;1.20;;;26.70;46.50;;;;;;5034034;28;20433;-48
2022/07/26 05:28:41;;;;;;;1.73;1.50;;;26.70;46.60;;;;;;5048482;28;20858;-48
2022/07/26 05:31:10;;;;;;;2.23;1.20;;;26.70;46.60;;;;;;5032603;28;20483;-48
2022/07/26 05:33:40;;;;;;;1.63;1.30;;;26.70;46.80;;;;;;5020301;28;20954;-47
2022/07/26 05:36:09;;;;;;;5.90;1.50;;;26.70;46.90;;;;;;5033475;28;20453;-48
2022/07/26 05:38:37;;;;;;;2.03;1.50;;;26.70;46.90;;;;;;5034265;28;20878;-48
2022/07/26 05:41:07;;;;;;;1.27;1.03;;;26.70;46.90;;;;;;5045510;28;20498;-47
2022/07/26 05:43:35;;;;;;;1.50;1.07;;;26.70;47.00;;;;;;5032914;28;21133;-48
2022/07/26 05:46:10;;;;;;;3.97;1.73;;;26.70;47.00;;;;;;5045921;28;20428;-48
2022/07/26 05:48:40;;;;;;;3.23;1.37;;;26.70;47.00;;;;;;5027800;28;20846;-48
2022/07/26 05:51:09;;;;;;;3.93;1.80;;;26.60;47.00;;;;;;5039090;28;20479;-48
2022/07/26 05:53:37;;;;;;;1.23;1.13;;;26.70;47.20;;;;;;5027344;28;20879;-47
2022/07/26 05:56:07;;;;;;;2.30;1.43;;;26.60;47.20;;;;;;5045604;28;20428;-48
2022/07/26 05:58:36;;;;;;;1.80;1.20;;;26.60;47.10;;;;;;5036358;28;20892;-49
2022/07/26 06:01:04;;;;;;;2.50;1.90;;;26.60;48.30;;;;;;5036395;28;20501;-48
2022/07/26 06:03:32;;;;;;;2.30;1.60;;;26.60;47.20;;;;;;5028252;28;20794;-48
2022/07/26 06:06:02;;;;;;;2.47;1.80;;;26.60;47.30;;;;;;5035891;28;20444;-48
2022/07/26 06:08:30;;;;;;;1.43;1.27;;;26.60;47.20;;;;;;5037587;28;20498;-48
2022/07/26 06:10:58;;;;;;;2.40;1.13;;;26.60;47.20;;;;;;5039066;28;20451;-48
2022/07/26 06:13:27;;;;;;;1.70;1.57;;;26.60;47.20;;;;;;5035797;28;20874;-47
2022/07/26 06:15:55;;;;;;;2.20;1.47;;;26.60;47.20;;;;;;5036659;28;20446;-48
2022/07/26 06:18:23;;;;;;;1.80;1.63;;;26.60;47.20;;;;;;5042034;28;20461;-47
2022/07/26 06:20:51;;;;;;;2.90;2.10;;;26.60;47.30;;;;;;5039748;28;20447;-47
2022/07/26 06:23:21;;;;;;;2.10;1.23;;;26.60;47.30;;;;;;5037994;28;20534;-47
2022/07/26 06:26:03;;;;;;;3.80;1.53;;;26.50;47.40;;;;;;5037114;28;20448;-47
2022/07/26 06:28:32;;;;;;;2.03;1.83;;;26.50;47.30;;;;;;5026391;28;20491;-47
2022/07/26 06:31:00;;;;;;;3.10;1.53;;;26.50;47.40;;;;;;5037271;28;20436;-47
2022/07/26 06:33:29;;;;;;;1.63;1.53;;;26.50;47.40;;;;;;5041691;28;20455;-47
2022/07/26 06:35:57;;;;;;;2.20;2.00;;;26.50;47.40;;;;;;5044411;28;20440;-48
2022/07/26 06:38:27;;;;;;;2.03;1.70;;;26.50;47.50;;;;;;5045477;28;20849;-48
2022/07/26 06:40:55;;;;;;;2.80;2.20;;;26.50;47.50;;;;;;5048017;28;20506;-48
2022/07/26 06:43:24;;;;;;;2.73;1.80;;;26.50;47.50;;;;;;5034024;28;20471;-48
2022/07/26 06:45:52;;;;;;;2.20;2.00;;;26.50;47.60;;;;;;5043655;28;20893;-47
2022/07/26 06:48:20;;;;;;;4.07;2.57;;;26.40;47.40;;;;;;5040263;28;20496;-48
2022/07/26 06:50:50;;;;;;;4.57;2.30;;;26.40;47.50;;;;;;5032835;28;20459;-48
2022/07/26 06:53:18;;;;;;;2.20;1.60;;;26.50;47.50;;;;;;5029651;28;20584;-48
2022/07/26 06:55:47;;;;;;;2.07;1.90;;;26.40;47.60;;;;;;5040893;28;20514;-48
2022/07/26 06:58:16;;;;;;;2.33;2.13;;;26.40;47.50;;;;;;5032696;28;20522;-48
2022/07/26 07:00:44;;;;;;;2.67;2.40;;;26.40;47.50;;;;;;5041356;28;20454;-48
2022/07/26 07:03:12;;;;;;;1.87;1.63;;;26.40;47.50;;;;;;5047962;28;20997;-48
2022/07/26 07:05:41;;;;;;;1.93;1.83;;;26.40;47.60;;;;;;5037211;28;20443;-48
2022/07/26 07:08:16;;;;;;;3.70;2.00;;;26.40;47.60;;;;;;5043712;28;20973;-48
2022/07/26 07:10:46;;;;;;;2.90;2.03;;;26.40;47.50;;;;;;5040893;28;20436;-48
2022/07/26 07:13:18;;;;;;;2.03;1.73;;;26.40;47.60;;;;;;5038091;28;20486;-47
2022/07/26 07:15:46;;;;;;;4.77;1.97;;;26.40;47.60;;;;;;5036308;28;20818;-47
2022/07/26 07:18:14;;;;;;;2.77;1.80;;;26.40;47.70;;;;;;5032035;28;20475;-48
2022/07/26 07:20:42;;;;;;;2.30;1.73;;;26.40;47.70;;;;;;5027863;28;20452;-46
2022/07/26 07:23:10;;;;;;;2.80;2.10;;;26.40;47.70;;;;;;5027508;28;20506;-48
2022/07/26 07:25:38;;;;;;;1.83;1.73;;;26.40;47.70;;;;;;5032773;28;20811;-48
2022/07/26 07:28:08;;;;;;;2.87;2.50;;;26.40;47.70;;;;;;5032563;28;20715;-48
2022/07/26 07:30:36;;;;;;;3.47;2.10;;;26.40;47.70;;;;;;5042157;23;21005;-48
2022/07/26 07:33:06;;;;;;;4.20;2.60;;;26.40;47.70;;;;;;5015745;28;20581;-47
2022/07/26 07:35:34;;;;;;;4.10;2.73;;;26.30;47.70;;;;;;5010490;28;20448;-48
2022/07/26 07:38:03;;;;;;;5.27;3.07;;;26.30;47.80;;;;;;5016218;28;20532;-46
2022/07/26 07:40:31;;;;;;;4.53;2.73;;;26.30;47.80;;;;;;5025865;28;20482;-48
2022/07/26 07:42:59;;;;;;;2.63;2.43;;;26.30;47.90;;;;;;5019321;28;20473;-49
2022/07/26 07:45:29;;;;;;;3.10;2.40;;;26.30;47.90;;;;;;5010661;28;20433;-48
2022/07/26 07:47:58;;;;;;;2.30;2.10;;;26.30;47.90;;;;;;5011274;28;20519;-49
2022/07/26 07:50:26;;;;;;;2.90;1.97;;;26.30;47.90;;;;;;5017472;28;20468;-48
2022/07/26 07:52:56;;;;;;;2.20;2.00;;;26.30;48.00;;;;;;5011292;28;20461;-46
2022/07/26 07:55:29;;;;;;;3.13;2.33;;;26.30;48.10;;;;;;5023705;28;20428;-47
2022/07/26 07:58:11;;;;;;;2.63;2.43;;;26.30;48.00;;;;;;5011118;28;20481;-47
2022/07/26 08:00:43;;;;;;;3.40;3.00;;;26.30;48.00;;;;;;5009157;28;20539;-47
2022/07/26 08:03:11;;;;;;;4.20;2.87;;;26.30;48.00;;;;;;5010071;28;20465;-50
2022/07/26 08:05:45;;;;;;;2.60;2.40;;;26.30;48.00;;;;;;5008643;28;20441;-46
2022/07/26 08:08:17;;;;;;;3.13;2.83;;;26.20;48.10;;;;;;5004483;28;20902;-48
2022/07/26 08:10:49;;;;;;;3.77;2.50;;;26.20;48.10;;;;;;5011671;28;20846;-47
2022/07/26 08:13:20;;;;;;;2.50;2.30;;;26.30;48.10;;;;;;5013241;28;20831;-46
2022/07/26 08:15:50;;;;;;;3.10;2.20;;;26.20;48.10;;;;;;5008645;28;20437;-49
2022/07/26 08:18:19;;;;;;;2.53;2.33;;;26.20;48.10;;;;;;5010905;28;20564;-47
2022/07/26 08:20:51;;;;;;;3.70;2.63;;;26.20;48.10;;;;;;5018455;28;20454;-47
2022/07/26 08:23:19;;;;;;;3.87;2.80;;;26.20;48.10;;;;;;5011816;28;20521;-48
2022/07/26 08:25:48;;;;;;;3.03;2.73;;;26.20;48.10;;;;;;5007254;28;20441;-48
2022/07/26 08:28:28;;;;;;;2.90;2.70;;;26.20;48.20;;;;;;5009542;28;20464;-47
2022/07/26 08:31:19;;;;;;;3.03;2.73;;;26.20;48.10;;;;;;5007342;28;20456;-48
2022/07/26 08:33:48;;;;;;;6.80;2.90;;;26.20;48.20;;;;;;5005002;28;20507;-48
2022/07/26 08:36:16;;;;;;;3.23;2.87;;;26.20;48.10;;;;;;5017062;28;20444;-50
2022/07/26 08:38:45;;;;;;;5.00;4.27;;;26.20;48.10;;;;;;5012141;28;20473;-47
2022/07/26 08:41:15;;;;;;;5.57;3.00;;;26.20;48.20;;;;;;5007212;28;20413;-48
2022/07/26 08:43:44;;;;;;;3.17;2.87;;;26.20;48.20;;;;;;5011413;28;20514;-47
2022/07/26 08:46:23;;;;;;;3.33;3.03;;;26.20;48.30;;;;;;5003322;28;20448;-47
2022/07/26 08:48:53;;;;;;;2.83;2.63;;;26.20;48.20;;;;;;5010657;28;20867;-48
2022/07/26 08:51:23;;;;;;;3.63;3.33;;;26.20;48.20;;;;;;5013705;28;20438;-48
2022/07/26 08:53:55;;;;;;;3.07;2.77;;;26.20;48.20;;;;;;5009173;28;20988;-48
2022/07/26 08:56:33;;;;;;;4.40;3.40;;;26.20;48.20;;;;;;5009840;28;20425;-45
2022/07/26 08:59:05;;;;;;;5.60;3.40;;;26.20;48.10;;;;;;5014194;28;20621;-47
2022/07/26 09:01:35;;;;;;;3.47;3.17;;;26.20;48.10;;;;;;5010488;28;20429;-47
2022/07/26 09:04:19;;;;;;;3.80;3.30;;;26.20;48.10;;;;;;5016245;28;20456;-47
2022/07/26 09:07:03;;;;;;;3.40;3.10;;;26.20;48.10;;;;;;5008138;28;20523;-47
2022/07/26 09:09:32;;;;;;;2.83;2.63;;;26.20;48.10;;;;;;5010391;28;20449;-46
2022/07/26 09:12:14;;;;;;;3.67;3.37;;;26.10;48.10;;;;;;5009567;28;20421;-45
2022/07/26 09:14:45;;;;;;;3.10;2.90;;;26.10;48.00;;;;;;5005766;28;20474;-47
2022/07/26 09:17:17;;;;;;;3.17;2.97;;;26.10;48.10;;;;;;5002091;28;20495;-48
2022/07/26 09:19:46;;;;;;;3.50;3.20;;;26.10;48.10;;;;;;5008387;28;20453;-49
2022/07/26 09:22:16;;;;;;;3.73;3.43;;;26.10;48.20;;;;;;5006506;28;20436;-47
2022/07/26 09:24:46;;;;;;;3.57;3.10;;;26.10;48.50;;;;;;5017932;28;20449;-47
2022/07/26 09:27:16;;;;;;;3.67;3.10;;;26.10;48.40;;;;;;5011289;28;20500;-48
2022/07/26 09:29:46;;;;;;;2.77;2.57;;;26.10;48.60;;;;;;5006335;28;20472;-46
2022/07/26 09:32:18;;;;;;;3.60;2.90;;;26.10;48.70;;;;;;5001328;28;20461;-48
2022/07/26 09:34:50;;;;;;;4.00;3.70;;;26.10;48.70;;;;;;5027950;28;20835;-50
2022/07/26 09:37:34;;;;;;;3.57;3.27;;;26.10;48.90;;;;;;5002922;28;20465;-47
2022/07/26 09:40:05;;;;;;;2.67;2.47;;;26.00;50.00;;;;;;5014425;28;20444;-48
2022/07/26 09:42:33;;;;;;;3.87;3.50;;;26.00;48.80;;;;;;5012892;28;20457;-49
2022/07/26 09:45:02;;;;;;;3.43;3.13;;;26.00;48.90;;;;;;5014700;28;20535;-48
2022/07/26 09:47:38;;;;;;;3.03;2.80;;;26.00;49.00;;;;;;5012820;28;20476;-49
2022/07/26 09:50:12;;;;;;;3.40;2.63;;;26.00;48.80;;;;;;5006365;28;20445;-47
2022/07/26 09:52:56;;;;;;;2.67;2.47;;;26.00;48.90;;;;;;5008649;28;20464;-47
2022/07/26 09:55:25;;;;;;;3.40;3.10;;;26.00;48.80;;;;;;5006251;28;20429;-48
2022/07/26 09:57:58;;;;;;;3.20;2.90;;;26.00;48.90;;;;;;5012361;28;20477;-46
2022/07/26 10:00:26;;;;;;;2.43;2.23;;;26.00;48.80;;;;;;5008001;28;20548;-50
2022/07/26 10:02:56;;;;;;;3.07;2.87;;;26.00;49.00;;;;;;5016973;28;20499;-48
2022/07/26 10:05:25;;;;;;;3.20;2.90;;;26.00;48.90;;;;;;5011107;28;20443;-49
2022/07/26 10:07:54;;;;;;;4.17;3.17;;;26.00;49.10;;;;;;5013001;28;20531;-49
2022/07/26 10:10:26;;;;;;;3.73;3.33;;;26.00;49.20;;;;;;5020609;28;20433;-49
2022/07/26 10:12:56;;;;;;;3.60;3.30;;;26.00;49.40;;;;;;5025428;28;20914;-48
2022/07/26 10:15:40;;;;;;;3.37;3.17;;;26.00;49.40;;;;;;5014696;28;20429;-48
2022/07/26 10:18:31;;;;;;;3.40;3.03;;;26.00;49.40;;;;;;5030260;28;20460;-47
2022/07/26 10:21:18;;;;;;;4.20;3.20;;;26.00;49.40;;;;;;5014210;28;20498;-48
2022/07/26 10:23:47;;;;;;;3.43;3.23;;;26.00;49.40;;;;;;5018876;28;20558;-48
2022/07/26 10:26:36;;;;;;;2.70;2.50;;;26.00;49.40;;;;;;5016677;28;20435;-48
2022/07/26 10:29:22;;;;;;;3.17;2.97;;;26.00;49.50;;;;;;5013122;28;20487;-49
2022/07/26 10:32:16;;;;;;;4.73;4.13;;;26.00;49.20;;;;;;5013691;28;20492;-47
2022/07/26 10:34:45;;;;;;;3.83;3.53;;;26.00;49.40;;;;;;5011559;28;20472;-50
2022/07/26 10:37:28;;;;;;;3.23;2.93;;;25.90;49.20;;;;;;5013749;28;20511;-48
2022/07/26 10:40:16;;;;;;;4.70;4.17;;;25.90;48.90;;;;;;5025308;28;20514;-48
2022/07/26 10:42:45;;;;;;;4.20;3.40;;;25.90;49.10;;;;;;5019831;28;20471;-49
2022/07/26 10:45:20;;;;;;;5.13;4.70;;;25.90;49.00;;;;;;5006995;28;20502;-49
2022/07/26 10:48:14;;;;;;;4.40;4.07;;;25.90;49.00;;;;;;5012149;28;20472;-46
2022/07/26 10:50:43;;;;;;;3.73;3.43;;;25.90;49.10;;;;;;5006144;28;20444;-48
2022/07/26 10:53:18;;;;;;;6.30;3.90;;;25.90;49.50;;;;;;5011665;28;20765;-47
2022/07/26 10:55:50;;;;;;;2.97;2.77;;;25.90;49.10;;;;;;5014048;28;20460;-49
2022/07/26 10:58:19;;;;;;;4.97;4.47;;;25.90;49.10;;;;;;5012420;28;20523;-47
2022/07/26 11:00:56;;;;;;;4.20;3.80;;;25.90;49.10;;;;;;5020259;28;20444;-47
2022/07/26 11:03:24;;;;;;;3.60;3.33;;;25.90;49.00;;;;;;5006127;28;20469;-48
2022/07/26 11:05:53;;;;;;;3.30;3.07;;;25.90;48.90;;;;;;5009814;28;20457;-50
2022/07/26 11:08:30;;;;;;;4.03;3.60;;;25.90;48.80;;;;;;5012126;28;20504;-49
2022/07/26 11:10:58;;;;;;;3.57;3.27;;;25.90;48.80;;;;;;5010627;28;20791;-46
2022/07/26 11:13:27;;;;;;;3.00;2.70;;;25.90;48.90;;;;;;5010014;28;20548;-47
2022/07/26 11:16:01;;;;;;;3.47;3.17;;;25.90;48.90;;;;;;5009869;28;20499;-47
2022/07/26 11:18:31;;;;;;;3.47;3.10;;;25.90;48.90;;;;;;5011894;28;21006;-48
2022/07/26 11:21:09;;;;;;;3.30;3.00;;;25.90;48.90;;;;;;5009659;28;20445;-49
2022/07/26 11:23:41;;;;;;;2.90;2.70;;;25.90;48.90;;;;;;5019836;28;20566;-48
2022/07/26 11:26:12;;;;;;;3.50;3.20;;;25.90;48.80;;;;;;5012287;28;20425;-47
2022/07/26 11:28:49;;;;;;;2.60;2.40;;;25.90;48.80;;;;;;5009760;28;20523;-47
2022/07/26 11:31:19;;;;;;;2.83;2.40;;;25.90;48.80;;;;;;5003349;28;20503;-48
2022/07/26 11:33:50;;;;;;;3.17;2.97;;;25.90;48.50;;;;;;5018609;28;20760;-51
2022/07/26 11:36:30;;;;;;;2.67;2.47;;;25.90;48.50;;;;;;5009291;28;20858;-49
2022/07/26 11:39:01;;;;;;;2.53;2.33;;;25.90;48.60;;;;;;5011462;28;20492;-47
2022/07/26 11:41:31;;;;;;;2.83;2.57;;;25.80;48.60;;;;;;5017633;28;20445;-48
2022/07/26 11:44:04;;;;;;;2.43;2.33;;;25.80;48.60;;;;;;5008232;28;20815;-49
2022/07/26 11:46:38;;;;;;;2.87;2.67;;;25.80;48.60;;;;;;5031920;28;20452;-47
2022/07/26 11:49:14;;;;;;;2.90;2.60;;;25.80;48.60;;;;;;5020594;28;20468;-48
2022/07/26 11:51:50;;;;;;;3.10;2.87;;;25.80;48.50;;;;;;5011527;28;20532;-47
2022/07/26 11:54:20;;;;;;;3.37;3.07;;;25.80;48.60;;;;;;5004252;28;20471;-47
2022/07/26 11:56:57;;;;;;;2.43;2.33;;;25.80;48.50;;;;;;5019866;28;20492;-46
2022/07/26 11:59:27;;;;;;;2.97;2.77;;;25.80;48.50;;;;;;5023437;28;20468;-46
2022/07/26 12:01:57;;;;;;;2.80;2.60;;;25.80;48.50;;;;;;5011576;28;20491;-49
2022/07/26 12:04:28;;;;;;;3.23;3.03;;;25.80;48.60;;;;;;5012062;28;20457;-49
2022/07/26 12:06:58;;;;;;;3.47;3.23;;;25.80;48.50;;;;;;5008496;28;20475;-47
2022/07/26 12:09:34;;;;;;;3.00;2.80;;;25.80;48.60;;;;;;5019103;28;20560;-47
2022/07/26 12:12:03;;;;;;;3.13;2.80;;;25.80;48.60;;;;;;5012940;28;20429;-49
2022/07/26 12:14:34;;;;;;;2.33;2.13;;;25.80;48.60;;;;;;5017430;28;20973;-47
2022/07/26 12:17:13;;;;;;;2.90;2.60;;;25.80;48.60;;;;;;5012488;28;20460;-49
2022/07/26 12:19:42;;;;;;;2.80;2.60;;;25.80;48.70;;;;;;5009980;28;20937;-48
2022/07/26 12:22:13;;;;;;;2.80;2.63;;;25.80;48.60;;;;;;5010835;28;20531;-50
2022/07/26 12:24:46;;;;;;;3.17;2.87;;;25.80;49.90;;;;;;5009554;28;20791;-48
2022/07/26 12:27:18;;;;;;;2.87;2.50;;;25.80;48.60;;;;;;5006294;28;20485;-47
2022/07/26 12:29:49;;;;;;;2.67;2.47;;;25.80;48.70;;;;;;5006001;28;20441;-48
2022/07/26 12:32:19;;;;;;;2.93;2.73;;;25.80;48.70;;;;;;5006788;28;20876;-47
2022/07/26 12:34:59;;;;;;;3.47;2.30;;;25.80;48.70;;;;;;5007403;28;20515;-48
2022/07/26 12:37:30;;;;;;;2.43;2.23;;;25.80;48.60;;;;;;5003905;28;20998;-47
2022/07/26 12:40:11;;;;;;;2.20;1.90;;;25.80;48.80;;;;;;5016596;28;20441;-49
2022/07/26 12:42:41;;;;;;;2.90;2.60;;;25.80;48.60;;;;;;5012449;28;20484;-47
2022/07/26 12:45:12;;;;;;;2.77;2.57;;;25.80;48.70;;;;;;5021269;28;20432;-47
2022/07/26 12:47:43;;;;;;;2.60;2.13;;;25.80;48.60;;;;;;5020006;28;20467;-47
2022/07/26 12:50:12;;;;;;;2.37;2.27;;;25.80;48.70;;;;;;5009790;28;20445;-48
2022/07/26 12:52:41;;;;;;;2.60;2.40;;;25.80;48.70;;;;;;5030052;28;20483;-47
2022/07/26 12:55:13;;;;;;;3.03;2.83;;;25.80;48.60;;;;;;5020034;28;20646;-48
2022/07/26 12:57:42;;;;;;;2.57;2.37;;;25.80;48.50;;;;;;5017060;28;20546;-48
2022/07/26 13:00:17;;;;;;;2.50;2.30;;;25.80;48.30;;;;;;5014780;28;20440;-48
2022/07/26 13:02:46;;;;;;;3.07;2.03;;;25.80;48.40;;;;;;5018282;28;20464;-49
2022/07/26 13:05:15;;;;;;;2.63;2.43;;;25.80;48.30;;;;;;5022553;28;20491;-47
2022/07/26 13:07:43;;;;;;;2.40;2.20;;;25.70;48.20;;;;;;5013302;28;20465;-49
2022/07/26 13:10:13;;;;;;;2.33;2.13;;;25.80;48.20;;;;;;5015885;28;20437;-47